createdAt,value
2022-08-14T00:02:44.410Z,1005.93
2022-08-14T00:05:58.411Z,1005.90
2022-08-14T00:08:58.989Z,1005.86
2022-08-14T00:11:58.276Z,1005.83
2022-08-14T00:15:06.168Z,1005.76
2022-08-14T00:18:14.388Z,1005.72
2022-08-14T00:21:22.447Z,1005.65
2022-08-14T00:24:28.886Z,1005.62
2022-08-14T00:27:27.740Z,1005.59
2022-08-14T00:30:31.813Z,1005.61
2022-08-14T00:33:51.614Z,1005.59
2022-08-14T00:36:49.368Z,1005.60
2022-08-14T00:39:47.194Z,1005.60
2022-08-14T00:42:56.887Z,1005.55
2022-08-14T00:46:05.102Z,1005.48
2022-08-14T00:49:14.758Z,1005.48
2022-08-14T00:52:22.339Z,1005.53
2022-08-14T00:55:30.570Z,1005.49
2022-08-14T00:58:44.866Z,1005.46
2022-08-14T01:01:42.371Z,1005.47
2022-08-14T01:04:54.041Z,1005.39
2022-08-14T01:07:56.787Z,1005.29
2022-08-14T01:10:54.256Z,1005.25
2022-08-14T01:14:04.929Z,1005.30
2022-08-14T01:17:08.968Z,1005.32
2022-08-14T01:20:27.601Z,1005.20
2022-08-14T01:23:22.309Z,1005.19
2022-08-14T01:26:35.792Z,1005.17
2022-08-14T01:30:00.578Z,1005.14
2022-08-14T01:32:42.714Z,1005.16
2022-08-14T01:36:02.809Z,1005.08
2022-08-14T01:38:55.844Z,1005.13
2022-08-14T01:42:04.193Z,1005.13
2022-08-14T01:45:05.414Z,1005.11
2022-08-14T01:48:14.204Z,1005.14
2022-08-14T01:51:22.277Z,1005.16
2022-08-14T01:54:38.269Z,1005.10
2022-08-14T01:57:49.637Z,1005.11
2022-08-14T02:00:40.350Z,1005.09
2022-08-14T02:03:53.308Z,1005.13
2022-08-14T02:06:54.082Z,1005.09
2022-08-14T02:10:01.894Z,1005.01
2022-08-14T02:13:09.674Z,1005.00
2022-08-14T02:16:22.343Z,1005.04
2022-08-14T02:19:20.708Z,1005.08
2022-08-14T02:22:33.140Z,1004.99
2022-08-14T02:25:30.950Z,1004.97
2022-08-14T02:28:57.317Z,1004.99
2022-08-14T02:31:44.099Z,1004.97
2022-08-14T02:34:52.434Z,1004.96
2022-08-14T02:38:00.129Z,1004.91
2022-08-14T02:41:08.900Z,1004.91
2022-08-14T02:44:17.235Z,1004.88
2022-08-14T02:47:22.435Z,1004.94
2022-08-14T02:50:29.785Z,1005.01
2022-08-14T02:53:31.445Z,1004.95
2022-08-14T02:57:15.203Z,1005.01
2022-08-14T02:59:46.240Z,1004.90
2022-08-14T03:02:58.497Z,1004.88
2022-08-14T03:05:56.162Z,1004.85
2022-08-14T03:09:03.952Z,1004.79
2022-08-14T03:12:11.779Z,1004.78
2022-08-14T03:15:19.348Z,1004.83
2022-08-14T03:18:32.057Z,1004.88
2022-08-14T03:21:29.693Z,1004.80
2022-08-14T03:24:38.757Z,1004.79
2022-08-14T03:27:48.596Z,1004.87
2022-08-14T03:30:52.270Z,1004.87
2022-08-14T03:34:02.460Z,1004.84
2022-08-14T03:37:39.129Z,1004.80
2022-08-14T03:40:18.343Z,1004.82
2022-08-14T03:43:28.427Z,1004.77
2022-08-14T03:46:52.593Z,1004.81
2022-08-14T03:49:35.255Z,1004.83
2022-08-14T03:52:40.865Z,1004.74
2022-08-14T03:55:43.569Z,1004.67
2022-08-14T03:58:52.604Z,1004.65
2022-08-14T04:02:01.733Z,1004.58
2022-08-14T04:05:11.950Z,1004.60
2022-08-14T04:08:22.718Z,1004.51
2022-08-14T04:11:25.871Z,1004.45
2022-08-14T04:14:37.135Z,1004.42
2022-08-14T04:17:34.275Z,1004.48
2022-08-14T04:20:54.809Z,1004.35
2022-08-14T04:23:49.028Z,1004.34
2022-08-14T04:26:55.694Z,1004.27
2022-08-14T04:30:03.378Z,1004.28
2022-08-14T04:33:20.290Z,1004.24
2022-08-14T04:36:17.769Z,1004.28
2022-08-14T04:39:25.556Z,1004.17
2022-08-14T04:42:33.525Z,1004.14
2022-08-14T04:45:41.059Z,1004.14
2022-08-14T04:48:51.186Z,1004.08
2022-08-14T04:51:56.208Z,1004.09
2022-08-14T04:54:54.706Z,1004.03
2022-08-14T04:58:03.329Z,1004.06
2022-08-14T05:01:03.689Z,1003.99
2022-08-14T05:04:14.677Z,1004.00
2022-08-14T05:07:13.881Z,1004.02
2022-08-14T05:10:24.759Z,1003.95
2022-08-14T05:13:47.411Z,1003.98
2022-08-14T05:16:39.047Z,1003.89
2022-08-14T05:21:54.156Z,1003.87
2022-08-14T05:22:56.178Z,1003.87
2022-08-14T05:25:53.607Z,1003.96
2022-08-14T05:29:00.836Z,1003.95
2022-08-14T05:32:09.010Z,1003.91
2022-08-14T05:35:16.631Z,1003.94
2022-08-14T05:38:31.070Z,1003.94
2022-08-14T05:41:53.759Z,1003.92
2022-08-14T05:44:34.804Z,1003.89
2022-08-14T05:47:43.719Z,1003.85
2022-08-14T05:50:52.794Z,1003.77
2022-08-14T05:54:13.566Z,1003.76
2022-08-14T05:57:06.188Z,1003.77
2022-08-14T06:00:13.960Z,1003.74
2022-08-14T06:03:18.953Z,1003.64
2022-08-14T06:06:26.502Z,1003.64
2022-08-14T06:09:36.011Z,1003.57
2022-08-14T06:12:55.530Z,1003.49
2022-08-14T06:15:43.195Z,1003.46
2022-08-14T06:18:52.760Z,1003.44
2022-08-14T06:22:02.188Z,1003.49
2022-08-14T06:25:10.689Z,1003.54
2022-08-14T06:28:27.431Z,1003.50
2022-08-14T06:31:18.471Z,1003.47
2022-08-14T06:35:09.738Z,1003.48
2022-08-14T06:37:34.272Z,1003.42
2022-08-14T06:40:43.748Z,1003.36
2022-08-14T06:43:54.105Z,1003.30
2022-08-14T06:47:02.439Z,1003.27
2022-08-14T06:50:09.834Z,1003.16
2022-08-14T06:53:19.844Z,1003.14
2022-08-14T06:56:27.570Z,1003.21
2022-08-14T06:59:35.891Z,1003.15
2022-08-14T07:02:44.064Z,1003.23
2022-08-14T07:05:55.886Z,1003.23
2022-08-14T07:08:55.296Z,1003.19
2022-08-14T07:12:03.215Z,1003.10
2022-08-14T07:15:11.708Z,1003.01
2022-08-14T07:18:19.518Z,1003.11
2022-08-14T07:21:27.149Z,1003.12
2022-08-14T07:24:34.811Z,1003.20
2022-08-14T07:27:43.080Z,1003.22
2022-08-14T07:30:51.938Z,1003.17
2022-08-14T07:33:59.743Z,1003.09
2022-08-14T07:37:07.487Z,1003.10
2022-08-14T07:40:22.105Z,1003.13
2022-08-14T07:43:23.920Z,1003.12
2022-08-14T07:46:32.019Z,1003.06
2022-08-14T07:49:41.330Z,1003.05
2022-08-14T07:52:50.829Z,1003.01
2022-08-14T07:56:09.052Z,1002.96
2022-08-14T07:59:04.674Z,1002.92
2022-08-14T08:02:05.774Z,1003.03
2022-08-14T08:05:13.736Z,1002.98
2022-08-14T08:08:27.295Z,1003.03
2022-08-14T08:11:24.610Z,1003.15
2022-08-14T08:14:24.708Z,1003.15
2022-08-14T08:17:34.352Z,1003.02
2022-08-14T08:20:42.844Z,1003.06
2022-08-14T08:23:51.129Z,1003.05
2022-08-14T08:26:50.443Z,1003.09
2022-08-14T08:29:58.628Z,1003.07
2022-08-14T08:33:06.528Z,1003.01
2022-08-14T08:36:18.780Z,1003.04
2022-08-14T08:39:22.808Z,1003.02
2022-08-14T08:42:24.440Z,1003.05
2022-08-14T08:45:25.103Z,1003.02
2022-08-14T08:48:31.560Z,1002.90
2022-08-14T08:51:30.784Z,1002.95
2022-08-14T08:54:31.105Z,1002.98
2022-08-14T08:57:39.398Z,1002.89
2022-08-14T09:00:48.810Z,1002.95
2022-08-14T09:03:56.331Z,1002.94
2022-08-14T09:07:10.109Z,1002.85
2022-08-14T09:10:08.013Z,1002.93
2022-08-14T09:13:15.588Z,1002.88
2022-08-14T09:16:25.020Z,1002.87
2022-08-14T09:19:32.838Z,1002.82
2022-08-14T09:22:47.885Z,1002.74
2022-08-14T09:26:01.073Z,1002.75
2022-08-14T09:28:50.452Z,1002.67
2022-08-14T09:31:58.486Z,1002.68
2022-08-14T09:35:08.586Z,1002.67
2022-08-14T09:38:19.531Z,1002.62
2022-08-14T09:41:21.957Z,1002.57
2022-08-14T09:44:30.435Z,1002.40
2022-08-14T09:47:39.510Z,1002.60
2022-08-14T09:50:50.558Z,1002.51
2022-08-14T09:54:18.540Z,1002.51
2022-08-14T09:57:04.004Z,1002.44
2022-08-14T10:00:05.849Z,1002.40
2022-08-14T10:03:09.171Z,1002.34
2022-08-14T10:06:19.343Z,1002.24
2022-08-14T10:09:27.847Z,1002.22
2022-08-14T10:12:32.062Z,1002.13
2022-08-14T10:15:40.678Z,1002.15
2022-08-14T10:18:50.813Z,1002.09
2022-08-14T10:21:59.023Z,1002.03
2022-08-14T10:25:04.182Z,1001.94
2022-08-14T10:28:04.686Z,1001.88
2022-08-14T10:31:13.349Z,1001.83
2022-08-14T10:34:29.031Z,1002.01
2022-08-14T10:37:28.057Z,1001.90
2022-08-14T10:40:38.432Z,1001.89
2022-08-14T10:43:36.401Z,1001.91
2022-08-14T10:47:40.777Z,1001.82
2022-08-14T10:49:49.227Z,1001.90
2022-08-14T10:52:50.408Z,1001.86
2022-08-14T10:55:58.379Z,1001.83
2022-08-14T10:59:06.040Z,1001.80
2022-08-14T11:02:15.611Z,1001.68
2022-08-14T11:05:26.548Z,1001.70
2022-08-14T11:08:35.715Z,1001.55
2022-08-14T11:11:44.046Z,1001.60
2022-08-14T11:14:59.331Z,1001.63
2022-08-14T11:17:55.753Z,1001.64
2022-08-14T11:20:58.041Z,1001.64
2022-08-14T11:24:54.516Z,1001.60
2022-08-14T11:27:10.660Z,1001.53
2022-08-14T11:30:50.459Z,1001.46
2022-08-14T11:33:24.108Z,1001.46
2022-08-14T11:36:35.213Z,1001.40
2022-08-14T11:39:37.107Z,1001.44
2022-08-14T11:42:57.021Z,1001.42
2022-08-14T11:45:50.323Z,1001.34
2022-08-14T11:49:03.860Z,1001.29
2022-08-14T11:52:02.731Z,1001.29
2022-08-14T11:55:10.106Z,1001.22
2022-08-14T11:58:23.872Z,1001.09
2022-08-14T12:01:21.559Z,1001.10
2022-08-14T12:04:32.172Z,1000.93
2022-08-14T12:07:30.978Z,1000.95
2022-08-14T12:10:42.481Z,1000.89
2022-08-14T12:13:44.302Z,1000.80
2022-08-14T12:16:41.675Z,1000.80
2022-08-14T12:19:51.033Z,1000.77
2022-08-14T12:22:52.482Z,1000.73
2022-08-14T12:26:12.021Z,1000.67
2022-08-14T12:29:05.430Z,1000.71
2022-08-14T12:32:14.222Z,1000.61
2022-08-14T12:35:22.112Z,1000.61
2022-08-14T12:38:29.985Z,1000.57
2022-08-14T12:41:37.637Z,1000.51
2022-08-14T12:44:45.767Z,1000.45
2022-08-14T12:47:56.433Z,1000.47
2022-08-14T12:51:04.040Z,1000.47
2022-08-14T12:54:27.573Z,1000.36
2022-08-14T12:57:20.620Z,1000.25
2022-08-14T13:00:28.776Z,1000.11
2022-08-14T13:03:36.817Z,1000.06
2022-08-14T13:06:44.719Z,1000.07
2022-08-14T13:09:48.419Z,1000.00
2022-08-14T13:13:13.217Z,1000.06
2022-08-14T13:16:02.322Z,999.90
2022-08-14T13:19:10.998Z,999.80
2022-08-14T13:22:10.043Z,999.90
2022-08-14T13:25:18.447Z,999.79
2022-08-14T13:28:33.103Z,999.74
2022-08-14T13:31:30.590Z,999.65
2022-08-14T13:34:31.586Z,999.61
2022-08-14T13:37:40.837Z,999.45
2022-08-14T13:40:48.553Z,999.41
2022-08-14T13:43:49.453Z,999.49
2022-08-14T13:46:54.266Z,999.41
2022-08-14T13:50:01.564Z,999.33
2022-08-14T13:53:09.651Z,999.22
2022-08-14T13:56:30.922Z,999.18
2022-08-14T13:59:37.950Z,999.16
2022-08-14T14:02:31.973Z,999.13
2022-08-14T14:05:52.636Z,999.09
2022-08-14T14:08:43.146Z,999.09
2022-08-14T14:11:40.857Z,999.07
2022-08-14T14:14:51.837Z,998.93
2022-08-14T14:17:52.133Z,998.91
2022-08-14T14:21:00.682Z,998.91
2022-08-14T14:24:08.274Z,998.88
2022-08-14T14:27:39.648Z,998.81
2022-08-14T14:30:46.293Z,998.76
2022-08-14T14:33:45.145Z,998.72
2022-08-14T14:36:28.260Z,998.61
2022-08-14T14:40:50.561Z,998.67
2022-08-14T14:42:41.898Z,998.59
2022-08-14T14:45:50.955Z,998.59
2022-08-14T14:49:01.155Z,998.63
2022-08-14T14:52:23.089Z,998.52
2022-08-14T14:55:17.141Z,998.54
2022-08-14T14:58:25.256Z,998.63
2022-08-14T15:01:33.289Z,998.61
2022-08-14T15:04:43.772Z,998.51
2022-08-14T15:07:52.786Z,998.52
2022-08-14T15:11:00.594Z,998.42
2022-08-14T15:14:56.070Z,998.38
2022-08-14T15:17:14.096Z,998.40
2022-08-14T15:20:30.527Z,998.31
2022-08-14T15:23:43.743Z,998.31
2022-08-14T15:26:32.909Z,998.35
2022-08-14T15:29:43.133Z,998.29
2022-08-14T15:32:51.875Z,998.27
2022-08-14T15:36:01.545Z,998.08
2022-08-14T15:39:09.938Z,997.99
2022-08-14T15:42:18.148Z,998.05
2022-08-14T15:45:25.626Z,998.04
2022-08-14T15:48:35.260Z,998.07
2022-08-14T15:51:42.346Z,997.95
2022-08-14T15:54:51.417Z,997.92
2022-08-14T15:58:03.281Z,997.83
2022-08-14T16:01:01.858Z,997.81
2022-08-14T16:04:11.239Z,997.77
2022-08-14T16:07:14.781Z,997.75
2022-08-14T16:10:30.650Z,997.78
2022-08-14T16:13:39.641Z,997.77
2022-08-14T16:16:49.786Z,997.72
2022-08-14T16:19:43.979Z,997.66
2022-08-14T16:22:57.690Z,997.61
2022-08-14T16:25:46.738Z,997.58
2022-08-14T16:28:49.282Z,997.53
2022-08-14T16:31:59.507Z,997.56
2022-08-14T16:35:09.783Z,997.53
2022-08-14T16:38:19.539Z,997.49
2022-08-14T16:41:23.849Z,997.59
2022-08-14T16:44:34.003Z,997.60
2022-08-14T16:47:41.488Z,997.63
2022-08-14T16:50:50.091Z,997.55
2022-08-14T16:53:57.921Z,997.54
2022-08-14T16:57:06.562Z,997.59
2022-08-14T17:00:19.767Z,997.58
2022-08-14T17:03:21.394Z,997.50
2022-08-14T17:06:33.356Z,997.48
2022-08-14T17:09:31.250Z,997.43
2022-08-14T17:12:40.332Z,997.48
2022-08-14T17:15:49.546Z,997.44
2022-08-14T17:18:55.433Z,997.38
2022-08-14T17:21:56.405Z,997.30
2022-08-14T17:25:04.180Z,997.27
2022-08-14T17:28:50.700Z,997.29
2022-08-14T17:31:17.910Z,997.29
2022-08-14T17:34:26.393Z,997.28
2022-08-14T17:37:27.659Z,997.35
2022-08-14T17:40:36.104Z,997.27
2022-08-14T17:43:44.546Z,997.26
2022-08-14T17:46:49.824Z,997.22
2022-08-14T17:49:52.868Z,997.20
2022-08-14T17:53:01.203Z,997.22
2022-08-14T17:56:09.021Z,997.22
2022-08-14T17:59:17.775Z,997.22
2022-08-14T18:02:30.880Z,997.23
2022-08-14T18:06:09.649Z,997.18
2022-08-14T18:08:40.845Z,997.24
2022-08-14T18:11:46.403Z,997.27
2022-08-14T18:14:48.634Z,997.23
2022-08-14T18:17:53.106Z,997.15
2022-08-14T18:21:42.925Z,997.21
2022-08-14T18:23:57.402Z,997.25
2022-08-14T18:27:08.676Z,997.22
2022-08-14T18:30:39.693Z,997.22
2022-08-14T18:33:11.234Z,997.26
2022-08-14T18:36:48.474Z,997.26
2022-08-14T18:39:18.533Z,997.19
2022-08-14T18:42:30.270Z,997.20
2022-08-14T18:45:28.949Z,997.33
2022-08-14T18:48:50.915Z,997.41
2022-08-14T18:51:45.615Z,997.37
2022-08-14T18:54:48.470Z,997.49
2022-08-14T18:57:45.256Z,997.46
2022-08-14T19:00:53.597Z,997.44
2022-08-14T19:04:01.288Z,997.46
2022-08-14T19:07:09.190Z,997.43
2022-08-14T19:10:16.980Z,997.49
2022-08-14T19:13:21.904Z,997.45
2022-08-14T19:16:18.387Z,997.52
2022-08-14T19:19:26.505Z,997.50
2022-08-14T19:22:30.008Z,997.43
2022-08-14T19:25:27.252Z,997.51
2022-08-14T19:28:32.211Z,997.51
2022-08-14T19:31:42.347Z,997.54
2022-08-14T19:34:52.258Z,997.54
2022-08-14T19:37:52.454Z,997.52
2022-08-14T19:40:51.576Z,997.49
2022-08-14T19:43:59.816Z,997.49
2022-08-14T19:47:08.086Z,997.56
2022-08-14T19:50:38.201Z,997.54
2022-08-14T19:53:17.650Z,997.49
2022-08-14T19:56:28.811Z,997.54
2022-08-14T19:59:21.083Z,997.51
2022-08-14T20:02:30.111Z,997.52
2022-08-14T20:05:46.059Z,997.50
2022-08-14T20:11:00.608Z,997.47
2022-08-14T20:12:02.725Z,997.46
2022-08-14T20:14:53.218Z,997.51
2022-08-14T20:18:01.661Z,997.46
2022-08-14T20:21:09.681Z,997.46
2022-08-14T20:24:30.860Z,997.50
2022-08-14T20:27:23.283Z,997.48
2022-08-14T20:30:33.528Z,997.48
2022-08-14T20:33:32.297Z,997.49
2022-08-14T20:36:37.878Z,997.44
2022-08-14T20:39:45.618Z,997.40
2022-08-14T20:42:50.706Z,997.39
2022-08-14T20:45:58.333Z,997.43
2022-08-14T20:49:05.991Z,997.36
2022-08-14T20:52:18.737Z,997.37
2022-08-14T20:55:16.535Z,997.31
2022-08-14T20:58:42.217Z,997.37
2022-08-14T21:01:33.125Z,997.30
2022-08-14T21:04:30.170Z,997.28
2022-08-14T21:07:37.842Z,997.27
2022-08-14T21:10:45.995Z,997.26
2022-08-14T21:14:19.705Z,997.22
2022-08-14T21:17:02.014Z,997.22
2022-08-14T21:20:25.306Z,997.32
2022-08-14T21:23:15.468Z,997.29
2022-08-14T21:26:50.582Z,997.29
2022-08-14T21:29:28.342Z,997.28
2022-08-14T21:32:50.101Z,997.22
2022-08-14T21:35:42.109Z,997.21
2022-08-14T21:38:50.425Z,997.16
2022-08-14T21:41:59.134Z,997.19
2022-08-14T21:45:07.656Z,997.19
2022-08-14T21:48:16.829Z,997.15
2022-08-14T21:51:52.949Z,997.27
2022-08-14T21:54:30.033Z,997.22
2022-08-14T21:57:56.687Z,997.15
2022-08-14T22:00:36.032Z,997.21
2022-08-14T22:03:37.763Z,997.22
2022-08-14T22:06:40.852Z,997.17
2022-08-14T22:09:55.335Z,997.16
2022-08-14T22:12:58.506Z,997.07
2022-08-14T22:15:59.552Z,997.03
2022-08-14T22:19:00.800Z,997.10
2022-08-14T22:22:09.500Z,997.12
2022-08-14T22:25:19.733Z,997.07
2022-08-14T22:28:27.582Z,997.01
2022-08-14T22:31:35.046Z,996.99
2022-08-14T22:34:32.766Z,996.95
2022-08-14T22:37:44.962Z,996.92
2022-08-14T22:41:02.398Z,996.93
2022-08-14T22:43:47.575Z,996.90
2022-08-14T22:46:02.346Z,996.89
2022-08-14T22:49:00.387Z,996.90
2022-08-14T22:52:32.735Z,996.92
2022-08-14T22:55:10.650Z,996.83
2022-08-14T22:57:22.541Z,996.89
2022-08-14T23:00:30.563Z,996.84
2022-08-14T23:03:38.328Z,996.79
2022-08-14T23:07:03.828Z,996.69
2022-08-14T23:09:56.698Z,996.67
2022-08-14T23:12:54.450Z,996.68
2022-08-14T23:15:52.486Z,996.63
2022-08-14T23:19:00.092Z,996.60
2022-08-14T23:22:07.951Z,996.56
2022-08-14T23:25:15.848Z,996.55
2022-08-14T23:28:34.641Z,996.54
2022-08-14T23:31:35.247Z,996.54
2022-08-14T23:34:33.234Z,996.45
2022-08-14T23:37:41.407Z,996.51
2022-08-14T23:40:50.096Z,996.48
2022-08-14T23:43:57.738Z,996.47
2022-08-14T23:47:11.823Z,996.36
2022-08-14T23:50:34.067Z,996.37
2022-08-14T23:53:47.328Z,996.27
2022-08-14T23:56:30.304Z,996.31
2022-08-14T23:59:27.573Z,996.24
